sensor_id;sensor_type;location;lat;lon;timestamp;pressure;altitude;pressure_sealevel;temperature;humidity
76070;BME280;64768;51.738;5.852;2023-02-18T00:01:38;102280.50;;;9.57;100.00
76070;BME280;64768;51.738;5.852;2023-02-18T00:04:14;102267.28;;;9.56;100.00
76070;BME280;64768;51.738;5.852;2023-02-18T00:06:56;102274.50;;;9.68;100.00
76070;BME280;64768;51.738;5.852;2023-02-18T00:09:33;102277.22;;;9.68;100.00
76070;BME280;64768;51.738;5.852;2023-02-18T00:15:24;102252.25;;;9.62;100.00
76070;BME280;64768;51.738;5.852;2023-02-18T00:17:59;102233.56;;;9.60;100.00
76070;BME280;64768;51.738;5.852;2023-02-18T00:20:41;102232.63;;;9.53;100.00
76070;BME280;64768;51.738;5.852;2023-02-18T00:23:19;102248.81;;;9.65;100.00
76070;BME280;64768;51.738;5.852;2023-02-18T00:26:01;102236.34;;;9.64;100.00
76070;BME280;64768;51.738;5.852;2023-02-18T00:28:36;102239.00;;;9.60;100.00
76070;BME280;64768;51.738;5.852;2023-02-18T00:31:21;102234.63;;;9.56;100.00
76070;BME280;64768;51.738;5.852;2023-02-18T00:33:56;102252.72;;;9.68;100.00
76070;BME280;64768;51.738;5.852;2023-02-18T00:36:42;102227.69;;;9.58;100.00
76070;BME280;64768;51.738;5.852;2023-02-18T00:39:19;102222.19;;;9.55;100.00
76070;BME280;64768;51.738;5.852;2023-02-18T00:41:59;102213.25;;;9.54;100.00
76070;BME280;64768;51.738;5.852;2023-02-18T00:44:37;102234.09;;;9.70;100.00
76070;BME280;64768;51.738;5.852;2023-02-18T00:49:44;102226.72;;;9.70;100.00
76070;BME280;64768;51.738;5.852;2023-02-18T00:52:18;102219.72;;;9.69;100.00
76070;BME280;64768;51.738;5.852;2023-02-18T00:55:05;102207.16;;;9.61;100.00
76070;BME280;64768;51.738;5.852;2023-02-18T00:57:47;102212.72;;;9.68;100.00
76070;BME280;64768;51.738;5.852;2023-02-18T01:00:28;102191.53;;;9.58;100.00
76070;BME280;64768;51.738;5.852;2023-02-18T01:03:02;102205.41;;;9.72;100.00
76070;BME280;64768;51.738;5.852;2023-02-18T01:05:40;102203.47;;;9.73;100.00
76070;BME280;64768;51.738;5.852;2023-02-18T01:08:12;102208.13;;;9.72;100.00
76070;BME280;64768;51.738;5.852;2023-02-18T01:10:52;102207.69;;;9.70;100.00
76070;BME280;64768;51.738;5.852;2023-02-18T01:13:25;102197.91;;;9.66;100.00
76070;BME280;64768;51.738;5.852;2023-02-18T01:16:04;102183.47;;;9.61;100.00
76070;BME280;64768;51.738;5.852;2023-02-18T01:18:35;102198.09;;;9.76;100.00
76070;BME280;64768;51.738;5.852;2023-02-18T01:21:11;102190.22;;;9.71;100.00
76070;BME280;64768;51.738;5.852;2023-02-18T01:23:43;102171.06;;;9.64;100.00
76070;BME280;64768;51.738;5.852;2023-02-18T01:26:27;102185.94;;;9.70;100.00
76070;BME280;64768;51.738;5.852;2023-02-18T01:29:06;102180.84;;;9.69;100.00
76070;BME280;64768;51.738;5.852;2023-02-18T01:41:59;102169.13;;;9.65;100.00
76070;BME280;64768;51.738;5.852;2023-02-18T01:44:31;102173.91;;;9.71;100.00
76070;BME280;64768;51.738;5.852;2023-02-18T01:47:30;102183.78;;;9.79;100.00
76070;BME280;64768;51.738;5.852;2023-02-18T01:50:00;102164.16;;;9.70;100.00
76070;BME280;64768;51.738;5.852;2023-02-18T01:52:45;102156.31;;;9.65;100.00
76070;BME280;64768;51.738;5.852;2023-02-18T01:55:18;102159.81;;;9.66;100.00
76070;BME280;64768;51.738;5.852;2023-02-18T01:58:03;102167.31;;;9.72;100.00
76070;BME280;64768;51.738;5.852;2023-02-18T02:00:37;102175.88;;;9.74;100.00
76070;BME280;64768;51.738;5.852;2023-02-18T02:03:10;102179.13;;;9.80;100.00
76070;BME280;64768;51.738;5.852;2023-02-18T02:05:56;102155.66;;;9.72;100.00
76070;BME280;64768;51.738;5.852;2023-02-18T02:11:20;102152.09;;;9.68;100.00
76070;BME280;64768;51.738;5.852;2023-02-18T02:14:07;102158.41;;;9.75;100.00
76070;BME280;64768;51.738;5.852;2023-02-18T02:16:56;102157.63;;;9.75;100.00
76070;BME280;64768;51.738;5.852;2023-02-18T02:32:43;102124.97;;;9.75;100.00
76070;BME280;64768;51.738;5.852;2023-02-18T02:35:22;102117.50;;;9.68;100.00
76070;BME280;64768;51.738;5.852;2023-02-18T02:37:53;102123.19;;;9.82;100.00
76070;BME280;64768;51.738;5.852;2023-02-18T02:40:30;102110.59;;;9.74;100.00
76070;BME280;64768;51.738;5.852;2023-02-18T02:43:07;102114.59;;;9.80;100.00
76070;BME280;64768;51.738;5.852;2023-02-18T02:45:50;102115.03;;;9.82;100.00
76070;BME280;64768;51.738;5.852;2023-02-18T02:48:31;102097.13;;;9.81;100.00
76070;BME280;64768;51.738;5.852;2023-02-18T02:51:23;102095.19;;;9.82;100.00
76070;BME280;64768;51.738;5.852;2023-02-18T02:54:08;102069.44;;;9.76;100.00
76070;BME280;64768;51.738;5.852;2023-02-18T02:56:45;102077.72;;;9.83;100.00
76070;BME280;64768;51.738;5.852;2023-02-18T02:59:23;102062.38;;;9.71;100.00
76070;BME280;64768;51.738;5.852;2023-02-18T03:02:14;102042.13;;;9.69;100.00
76070;BME280;64768;51.738;5.852;2023-02-18T03:04:57;102056.63;;;9.76;100.00
76070;BME280;64768;51.738;5.852;2023-02-18T03:08:01;102039.41;;;9.69;100.00
76070;BME280;64768;51.738;5.852;2023-02-18T03:10:52;102042.22;;;9.76;100.00
76070;BME280;64768;51.738;5.852;2023-02-18T03:13:32;102036.44;;;9.77;100.00
76070;BME280;64768;51.738;5.852;2023-02-18T03:16:12;102030.16;;;9.73;100.00
76070;BME280;64768;51.738;5.852;2023-02-18T03:18:47;102031.41;;;9.79;100.00
76070;BME280;64768;51.738;5.852;2023-02-18T03:21:25;102030.31;;;9.84;100.00
76070;BME280;64768;51.738;5.852;2023-02-18T03:24:00;102019.69;;;9.75;100.00
76070;BME280;64768;51.738;5.852;2023-02-18T03:26:30;102011.97;;;9.77;100.00
76070;BME280;64768;51.738;5.852;2023-02-18T03:29:02;102014.34;;;9.82;100.00
76070;BME280;64768;51.738;5.852;2023-02-18T03:31:36;101995.88;;;9.69;100.00
76070;BME280;64768;51.738;5.852;2023-02-18T03:34:10;102014.34;;;9.82;100.00
76070;BME280;64768;51.738;5.852;2023-02-18T03:36:40;102013.56;;;9.82;100.00
76070;BME280;64768;51.738;5.852;2023-02-18T03:39:17;101984.69;;;9.74;100.00
76070;BME280;64768;51.738;5.852;2023-02-18T03:41:49;101988.63;;;9.76;100.00
76070;BME280;64768;51.738;5.852;2023-02-18T03:44:19;101988.63;;;9.76;100.00
76070;BME280;64768;51.738;5.852;2023-02-18T03:46:48;101974.22;;;9.76;100.00
76070;BME280;64768;51.738;5.852;2023-02-18T03:49:18;101973.44;;;9.75;100.00
76070;BME280;64768;51.738;5.852;2023-02-18T03:51:48;101969.50;;;9.73;100.00
76070;BME280;64768;51.738;5.852;2023-02-18T03:56:55;101969.59;;;9.76;100.00
76070;BME280;64768;51.738;5.852;2023-02-18T03:59:26;101972.38;;;9.83;100.00
76070;BME280;64768;51.738;5.852;2023-02-18T04:01:59;101957.44;;;9.70;100.00
76070;BME280;64768;51.738;5.852;2023-02-18T04:04:32;101959.41;;;9.73;100.00
76070;BME280;64768;51.738;5.852;2023-02-18T04:07:08;101951.97;;;9.67;100.00
76070;BME280;64768;51.738;5.852;2023-02-18T04:09:38;101966.13;;;9.79;100.00
76070;BME280;64768;51.738;5.852;2023-02-18T04:12:15;101940.34;;;9.70;100.00
76070;BME280;64768;51.738;5.852;2023-02-18T04:14:54;101939.59;;;9.73;100.00
76070;BME280;64768;51.738;5.852;2023-02-18T04:17:23;101932.59;;;9.72;100.00
76070;BME280;64768;51.738;5.852;2023-02-18T04:19:52;101947.44;;;9.78;100.00
76070;BME280;64768;51.738;5.852;2023-02-18T04:22:22;101947.00;;;9.76;100.00
76070;BME280;64768;51.738;5.852;2023-02-18T04:24:53;101937.28;;;9.75;100.00
76070;BME280;64768;51.738;5.852;2023-02-18T04:27:29;101942.38;;;9.76;100.00
76070;BME280;64768;51.738;5.852;2023-02-18T04:29:58;101928.31;;;9.71;100.00
76070;BME280;64768;51.738;5.852;2023-02-18T04:32:28;101929.56;;;9.77;100.00
76070;BME280;64768;51.738;5.852;2023-02-18T04:34:57;101928.31;;;9.71;100.00
76070;BME280;64768;51.738;5.852;2023-02-18T04:37:27;101918.94;;;9.68;100.00
76070;BME280;64768;51.738;5.852;2023-02-18T04:39:56;101935.25;;;9.68;100.00
76070;BME280;64768;51.738;5.852;2023-02-18T04:42:29;101925.94;;;9.69;100.00
76070;BME280;64768;51.738;5.852;2023-02-18T04:45:00;101935.00;;;9.77;100.00
76070;BME280;64768;51.738;5.852;2023-02-18T04:47:30;101921.25;;;9.66;100.00
76070;BME280;64768;51.738;5.852;2023-02-18T04:49:59;101909.56;;;9.62;100.00
76070;BME280;64768;51.738;5.852;2023-02-18T04:52:31;101920.88;;;9.68;100.00
76070;BME280;64768;51.738;5.852;2023-02-18T04:55:00;101929.50;;;9.73;100.00
76070;BME280;64768;51.738;5.852;2023-02-18T04:57:33;101923.28;;;9.73;100.00
76070;BME280;64768;51.738;5.852;2023-02-18T05:00:03;101923.28;;;9.73;100.00
76070;BME280;64768;51.738;5.852;2023-02-18T05:02:34;101916.47;;;9.59;100.00
76070;BME280;64768;51.738;5.852;2023-02-18T05:05:03;101938.41;;;9.70;100.00
76070;BME280;64768;51.738;5.852;2023-02-18T05:07:36;101902.19;;;9.62;100.00
76070;BME280;64768;51.738;5.852;2023-02-18T05:10:11;101918.94;;;9.68;100.00
76070;BME280;64768;51.738;5.852;2023-02-18T05:12:55;101905.25;;;9.61;100.00
76070;BME280;64768;51.738;5.852;2023-02-18T05:15:28;101901.41;;;9.62;100.00
76070;BME280;64768;51.738;5.852;2023-02-18T05:18:04;101889.78;;;9.65;100.00
76070;BME280;64768;51.738;5.852;2023-02-18T05:20:45;101885.00;;;9.58;100.00
76070;BME280;64768;51.738;5.852;2023-02-18T05:23:15;101898.75;;;9.69;100.00
76070;BME280;64768;51.738;5.852;2023-02-18T05:25:53;101874.09;;;9.55;100.00
76070;BME280;64768;51.738;5.852;2023-02-18T05:28:29;101875.69;;;9.59;100.00
76070;BME280;64768;51.738;5.852;2023-02-18T05:30:59;101893.66;;;9.64;100.00
76070;BME280;64768;51.738;5.852;2023-02-18T05:33:28;101883.13;;;9.62;100.00
76070;BME280;64768;51.738;5.852;2023-02-18T05:35:57;101887.47;;;9.67;100.00
76070;BME280;64768;51.738;5.852;2023-02-18T05:38:27;101868.25;;;9.53;100.00
76070;BME280;64768;51.738;5.852;2023-02-18T05:40:59;101865.63;;;9.60;100.00
76070;BME280;64768;51.738;5.852;2023-02-18T05:43:33;101889.41;;;9.67;100.00
76070;BME280;64768;51.738;5.852;2023-02-18T05:46:22;101860.97;;;9.60;100.00
76070;BME280;64768;51.738;5.852;2023-02-18T05:48:51;101871.94;;;9.68;100.00
76070;BME280;64768;51.738;5.852;2023-02-18T05:51:20;101869.56;;;9.66;100.00
76070;BME280;64768;51.738;5.852;2023-02-18T05:53:53;101870.25;;;9.59;100.00
76070;BME280;64768;51.738;5.852;2023-02-18T05:56:23;101859.34;;;9.56;100.00
76070;BME280;64768;51.738;5.852;2023-02-18T05:58:57;101865.97;;;9.58;100.00
76070;BME280;64768;51.738;5.852;2023-02-18T06:01:29;101858.28;;;9.64;100.00
76070;BME280;64768;51.738;5.852;2023-02-18T06:03:58;101857.00;;;9.54;100.00
76070;BME280;64768;51.738;5.852;2023-02-18T06:06:30;101866.81;;;9.62;100.00
76070;BME280;64768;51.738;5.852;2023-02-18T06:08:59;101846.44;;;9.49;100.00
76070;BME280;64768;51.738;5.852;2023-02-18T06:11:29;101853.81;;;9.49;100.00
76070;BME280;64768;51.738;5.852;2023-02-18T06:14:04;101868.66;;;9.55;100.00
76070;BME280;64768;51.738;5.852;2023-02-18T06:16:33;101866.75;;;9.59;100.00
76070;BME280;64768;51.738;5.852;2023-02-18T06:19:05;101843.69;;;9.46;100.00
76070;BME280;64768;51.738;5.852;2023-02-18T06:21:40;101862.53;;;9.61;100.00
76070;BME280;64768;51.738;5.852;2023-02-18T06:24:21;101865.25;;;9.61;100.00
76070;BME280;64768;51.738;5.852;2023-02-18T06:26:50;101861.69;;;9.57;100.00
76070;BME280;64768;51.738;5.852;2023-02-18T06:29:22;101851.94;;;9.53;100.00
76070;BME280;64768;51.738;5.852;2023-02-18T06:31:54;101839.81;;;9.47;100.00
76070;BME280;64768;51.738;5.852;2023-02-18T06:34:24;101841.03;;;9.53;100.00
76070;BME280;64768;51.738;5.852;2023-02-18T06:36:54;101844.91;;;9.52;100.00
76070;BME280;64768;51.738;5.852;2023-02-18T06:39:23;101855.09;;;9.58;100.00
76070;BME280;64768;51.738;5.852;2023-02-18T06:41:52;101833.97;;;9.45;100.00
76070;BME280;64768;51.738;5.852;2023-02-18T06:44:24;101841.00;;;9.49;100.00
76070;BME280;64768;51.738;5.852;2023-02-18T06:46:53;101848.78;;;9.51;100.00
76070;BME280;64768;51.738;5.852;2023-02-18T06:49:22;101837.47;;;9.45;100.00
76070;BME280;64768;51.738;5.852;2023-02-18T06:51:52;101834.38;;;9.47;100.00
76070;BME280;64768;51.738;5.852;2023-02-18T06:54:21;101861.31;;;9.59;100.00
76070;BME280;64768;51.738;5.852;2023-02-18T06:56:50;101851.50;;;9.51;100.00
76070;BME280;64768;51.738;5.852;2023-02-18T06:59:21;101861.59;;;9.50;100.00
76070;BME280;64768;51.738;5.852;2023-02-18T07:01:56;101859.72;;;9.54;100.00
76070;BME280;64768;51.738;5.852;2023-02-18T07:04:39;101859.22;;;9.45;100.00
76070;BME280;64768;51.738;5.852;2023-02-18T07:07:13;101871.38;;;9.55;100.00
76070;BME280;64768;51.738;5.852;2023-02-18T07:09:54;101857.28;;;9.46;100.00
76070;BME280;64768;51.738;5.852;2023-02-18T07:12:23;101849.06;;;9.42;100.00
76070;BME280;64768;51.738;5.852;2023-02-18T07:14:55;101863.53;;;9.50;100.00
76070;BME280;64768;51.738;5.852;2023-02-18T07:17:27;101866.16;;;9.43;100.00
76070;BME280;64768;51.738;5.852;2023-02-18T07:19:56;101855.28;;;9.43;100.00
76070;BME280;64768;51.738;5.852;2023-02-18T07:22:28;101873.63;;;9.49;100.00
76070;BME280;64768;51.738;5.852;2023-02-18T07:25:01;101874.69;;;9.41;100.00
76070;BME280;64768;51.738;5.852;2023-02-18T07:27:30;101868.88;;;9.43;100.00
76070;BME280;64768;51.738;5.852;2023-02-18T07:29:59;101851.00;;;9.42;100.00
76070;BME280;64768;51.738;5.852;2023-02-18T07:32:32;101845.09;;;9.36;100.00
76070;BME280;64768;51.738;5.852;2023-02-18T07:35:02;101877.13;;;9.50;100.00
76070;BME280;64768;51.738;5.852;2023-02-18T07:37:34;101873.91;;;9.41;100.00
76070;BME280;64768;51.738;5.852;2023-02-18T07:40:09;101873.13;;;9.40;100.00
76070;BME280;64768;51.738;5.852;2023-02-18T07:42:39;101880.50;;;9.40;100.00
76070;BME280;64768;51.738;5.852;2023-02-18T07:45:10;101877.81;;;9.43;100.00
76070;BME280;64768;51.738;5.852;2023-02-18T07:47:44;101886.03;;;9.47;100.00
76070;BME280;64768;51.738;5.852;2023-02-18T07:50:14;101880.63;;;9.50;100.00
76070;BME280;64768;51.738;5.852;2023-02-18T07:52:46;101889.94;;;9.49;100.00
76070;BME280;64768;51.738;5.852;2023-02-18T07:55:28;101887.84;;;9.39;100.00
76070;BME280;64768;51.738;5.852;2023-02-18T07:58:14;101895.28;;;9.42;100.00
76070;BME280;64768;51.738;5.852;2023-02-18T08:00:47;101899.22;;;9.45;100.00
76070;BME280;64768;51.738;5.852;2023-02-18T08:03:25;101895.19;;;9.35;100.00
76070;BME280;64768;51.738;5.852;2023-02-18T08:05:59;101888.88;;;9.27;100.00
76070;BME280;64768;51.738;5.852;2023-02-18T08:08:50;101902.25;;;9.40;100.00
76070;BME280;64768;51.738;5.852;2023-02-18T08:11:44;101897.94;;;9.39;100.00
76070;BME280;64768;51.738;5.852;2023-02-18T08:14:34;101897.94;;;9.39;100.00
76070;BME280;64768;51.738;5.852;2023-02-18T08:19:42;101894.72;;;9.29;100.00
76070;BME280;64768;51.738;5.852;2023-02-18T08:22:17;101891.66;;;9.31;100.00
76070;BME280;64768;51.738;5.852;2023-02-18T08:24:47;101892.44;;;9.31;100.00
76070;BME280;64768;51.738;5.852;2023-02-18T08:27:19;101899.09;;;9.38;100.00
76070;BME280;64768;51.738;5.852;2023-02-18T08:29:58;101897.09;;;9.31;100.00
76070;BME280;64768;51.738;5.852;2023-02-18T08:32:44;101899.88;;;9.38;100.00
76070;BME280;64768;51.738;5.852;2023-02-18T08:35:19;101903.75;;;9.37;100.00
76070;BME280;64768;51.738;5.852;2023-02-18T08:37:48;101894.72;;;9.29;100.00
76070;BME280;64768;51.738;5.852;2023-02-18T08:40:18;101873.25;;;9.21;100.00
76070;BME280;64768;51.738;5.852;2023-02-18T08:42:48;101903.34;;;9.35;100.00
76070;BME280;64768;51.738;5.852;2023-02-18T08:45:18;101902.97;;;9.37;100.00
76070;BME280;64768;51.738;5.852;2023-02-18T08:47:50;101881.03;;;9.22;100.00
76070;BME280;64768;51.738;5.852;2023-02-18T08:50:24;101890.06;;;9.30;100.00
76070;BME280;64768;51.738;5.852;2023-02-18T08:52:58;101909.56;;;9.36;100.00
76070;BME280;64768;51.738;5.852;2023-02-18T08:55:28;101888.06;;;9.27;100.00
76070;BME280;64768;51.738;5.852;2023-02-18T08:58:02;101892.72;;;9.26;100.00
76070;BME280;64768;51.738;5.852;2023-02-18T09:00:33;101883.31;;;9.20;100.00
76070;BME280;64768;51.738;5.852;2023-02-18T09:03:05;101893.09;;;9.25;100.00
76070;BME280;64768;51.738;5.852;2023-02-18T09:05:39;101904.88;;;9.32;100.00
76070;BME280;64768;51.738;5.852;2023-02-18T09:08:21;101895.03;;;9.24;100.00
76070;BME280;64768;51.738;5.852;2023-02-18T09:10:56;101914.19;;;9.31;100.00
76070;BME280;64768;51.738;5.852;2023-02-18T09:13:26;101907.53;;;9.29;100.00
76070;BME280;64768;51.738;5.852;2023-02-18T09:16:03;101902.75;;;9.22;100.00
76070;BME280;64768;51.738;5.852;2023-02-18T09:18:34;101884.84;;;9.18;100.00
76070;BME280;64768;51.738;5.852;2023-02-18T09:21:08;101892.69;;;9.23;100.00
76070;BME280;64768;51.738;5.852;2023-02-18T09:23:39;101916.47;;;9.29;100.00
76070;BME280;64768;51.738;5.852;2023-02-18T09:26:09;101909.47;;;9.28;100.00
76070;BME280;64768;51.738;5.852;2023-02-18T09:28:40;101897.44;;;9.29;100.00
76070;BME280;64768;51.738;5.852;2023-02-18T09:31:11;101884.13;;;9.21;100.00
76070;BME280;64768;51.738;5.852;2023-02-18T09:33:43;101890.44;;;9.28;100.00
76070;BME280;64768;51.738;5.852;2023-02-18T09:36:16;101902.47;;;9.27;100.00
76070;BME280;64768;51.738;5.852;2023-02-18T09:38:45;101888.75;;;9.20;100.00
76070;BME280;64768;51.738;5.852;2023-02-18T09:41:28;101909.81;;;9.27;100.00
76070;BME280;64768;51.738;5.852;2023-02-18T09:44:02;101896.91;;;9.20;100.00
76070;BME280;64768;51.738;5.852;2023-02-18T09:46:34;101894.94;;;9.17;100.00
76070;BME280;64768;51.738;5.852;2023-02-18T09:49:12;101889.38;;;9.10;100.00
76070;BME280;64768;51.738;5.852;2023-02-18T09:51:45;101903.13;;;9.21;100.00
76070;BME280;64768;51.738;5.852;2023-02-18T09:54:17;101900.63;;;9.09;100.00
76070;BME280;64768;51.738;5.852;2023-02-18T09:56:48;101909.31;;;9.18;100.00
76070;BME280;64768;51.738;5.852;2023-02-18T09:59:21;101892.41;;;9.05;100.00
76070;BME280;64768;51.738;5.852;2023-02-18T10:01:53;101899.75;;;9.01;100.00
76070;BME280;64768;51.738;5.852;2023-02-18T10:04:31;101898.16;;;9.00;100.00
76070;BME280;64768;51.738;5.852;2023-02-18T10:07:05;101901.72;;;9.04;100.00
76070;BME280;64768;51.738;5.852;2023-02-18T10:09:36;101890.75;;;8.97;100.00
76070;BME280;64768;51.738;5.852;2023-02-18T10:12:15;101897.44;;;9.03;100.00
76070;BME280;64768;51.738;5.852;2023-02-18T10:14:47;101900.94;;;9.03;100.00
76070;BME280;64768;51.738;5.852;2023-02-18T10:17:17;101921.22;;;9.10;100.00
76070;BME280;64768;51.738;5.852;2023-02-18T10:19:49;101924.25;;;9.05;100.00
76070;BME280;64768;51.738;5.852;2023-02-18T10:22:24;101928.47;;;9.02;100.00
76070;BME280;64768;51.738;5.852;2023-02-18T10:24:59;101941.75;;;9.07;100.00
76070;BME280;64768;51.738;5.852;2023-02-18T10:27:34;101936.22;;;9.00;100.00
76070;BME280;64768;51.738;5.852;2023-02-18T10:30:20;101923.78;;;8.99;100.00
76070;BME280;64768;51.738;5.852;2023-02-18T10:32:53;101912.78;;;8.92;100.00
76070;BME280;64768;51.738;5.852;2023-02-18T10:35:30;101933.81;;;8.95;100.00
76070;BME280;64768;51.738;5.852;2023-02-18T10:38:11;101930.72;;;8.96;100.00
76070;BME280;64768;51.738;5.852;2023-02-18T10:40:47;101948.66;;;9.01;100.00
76070;BME280;64768;51.738;5.852;2023-02-18T10:43:28;101922.81;;;8.88;100.00
76070;BME280;64768;51.738;5.852;2023-02-18T10:46:03;101947.91;;;9.04;100.00
76070;BME280;64768;51.738;5.852;2023-02-18T10:49:05;101945.97;;;9.05;100.00
76070;BME280;64768;51.738;5.852;2023-02-18T10:51:46;101939.56;;;8.93;100.00
76070;BME280;64768;51.738;5.852;2023-02-18T10:54:22;101942.78;;;8.99;100.00
76070;BME280;64768;51.738;5.852;2023-02-18T10:56:54;101957.63;;;9.05;100.00
76070;BME280;64768;51.738;5.852;2023-02-18T10:59:31;101951.78;;;9.03;100.00
76070;BME280;64768;51.738;5.852;2023-02-18T11:02:02;101944.72;;;8.98;100.00
76070;BME280;64768;51.738;5.852;2023-02-18T11:04:36;101969.06;;;9.14;100.00
76070;BME280;64768;51.738;5.852;2023-02-18T11:07:13;101964.41;;;9.15;100.00
76070;BME280;64768;51.738;5.852;2023-02-18T11:09:49;101960.81;;;9.11;100.00
76070;BME280;64768;51.738;5.852;2023-02-18T11:12:23;101951.47;;;9.08;100.00
76070;BME280;64768;51.738;5.852;2023-02-18T11:15:15;101953.81;;;9.10;100.00
76070;BME280;64768;51.738;5.852;2023-02-18T11:17:46;101945.97;;;9.05;100.00
76070;BME280;64768;51.738;5.852;2023-02-18T11:20:25;101941.28;;;9.01;100.00
76070;BME280;64768;51.738;5.852;2023-02-18T11:22:59;101946.94;;;9.16;100.00
76070;BME280;64768;51.738;5.852;2023-02-18T11:25:58;101942.16;;;9.09;100.00
76070;BME280;64768;51.738;5.852;2023-02-18T11:28:39;101953.91;;;9.13;100.00
76070;BME280;64768;51.738;5.852;2023-02-18T11:31:15;101938.66;;;9.09;100.00
76070;BME280;64768;51.738;5.852;2023-02-18T11:33:48;101941.47;;;9.12;100.00
76070;BME280;64768;51.738;5.852;2023-02-18T11:36:22;101941.88;;;9.14;100.00
76070;BME280;64768;51.738;5.852;2023-02-18T11:38:54;101942.28;;;9.16;100.00
76070;BME280;64768;51.738;5.852;2023-02-18T11:41:34;101961.41;;;9.23;100.00
76070;BME280;64768;51.738;5.852;2023-02-18T11:44:06;101940.41;;;9.20;100.00
76070;BME280;64768;51.738;5.852;2023-02-18T11:46:36;101931.06;;;9.18;100.00
76070;BME280;64768;51.738;5.852;2023-02-18T11:49:21;101951.66;;;9.19;100.00
76070;BME280;64768;51.738;5.852;2023-02-18T11:51:51;101942.38;;;9.23;100.00
76070;BME280;64768;51.738;5.852;2023-02-18T11:54:25;101938.88;;;9.23;100.00
76070;BME280;64768;51.738;5.852;2023-02-18T11:57:00;101922.16;;;9.21;100.00
76070;BME280;64768;51.738;5.852;2023-02-18T11:59:39;101943.34;;;9.35;100.00
76070;BME280;64768;51.738;5.852;2023-02-18T12:02:24;101925.78;;;9.28;100.00
76070;BME280;64768;51.738;5.852;2023-02-18T12:05:00;101928.59;;;9.36;100.00
76070;BME280;64768;51.738;5.852;2023-02-18T12:07:42;101921.19;;;9.32;100.00
76070;BME280;64768;51.738;5.852;2023-02-18T12:10:17;101918.19;;;9.41;100.00
76070;BME280;64768;51.738;5.852;2023-02-18T12:12:55;101921.84;;;9.52;100.00
76070;BME280;64768;51.738;5.852;2023-02-18T12:15:37;101916.16;;;9.61;100.00
76070;BME280;64768;51.738;5.852;2023-02-18T12:18:31;101898.59;;;9.58;100.00
76070;BME280;64768;51.738;5.852;2023-02-18T12:21:26;101905.75;;;9.70;100.00
76070;BME280;64768;51.738;5.852;2023-02-18T12:24:12;101924.97;;;9.84;100.00
76070;BME280;64768;51.738;5.852;2023-02-18T12:27:01;101931.56;;;9.83;100.00
76070;BME280;64768;51.738;5.852;2023-02-18T12:36:57;101933.19;;;9.88;100.00
76070;BME280;64768;51.738;5.852;2023-02-18T12:40:42;101922.13;;;9.74;100.00
76070;BME280;64768;51.738;5.852;2023-02-18T12:43:59;101912.34;;;9.69;100.00
76070;BME280;64768;51.738;5.852;2023-02-18T12:47:14;101921.09;;;9.85;100.00
76070;BME280;64768;51.738;5.852;2023-02-18T13:06:25;101905.94;;;9.84;100.00
76070;BME280;64768;51.738;5.852;2023-02-18T13:37:50;101916.59;;;10.30;100.00
76070;BME280;64768;51.738;5.852;2023-02-18T13:41:07;101923.19;;;10.26;100.00
76070;BME280;64768;51.738;5.852;2023-02-18T13:50:40;101912.22;;;10.22;100.00
76070;BME280;64768;51.738;5.852;2023-02-18T14:48:49;101941.88;;;10.68;100.00
76070;BME280;64768;51.738;5.852;2023-02-18T14:50:43;101939.94;;;10.72;100.00
76070;BME280;64768;51.738;5.852;2023-02-18T14:53:14;101936.56;;;10.82;100.00
76070;BME280;64768;51.738;5.852;2023-02-18T14:55:48;101935.38;;;10.83;100.00
76070;BME280;64768;51.738;5.852;2023-02-18T14:58:30;101933.06;;;10.85;100.00
76070;BME280;64768;51.738;5.852;2023-02-18T15:01:05;101934.66;;;10.90;100.00
76070;BME280;64768;51.738;5.852;2023-02-18T15:03:50;101941.34;;;10.96;100.00
76070;BME280;64768;51.738;5.852;2023-02-18T15:06:29;101951.50;;;11.02;100.00
76070;BME280;64768;51.738;5.852;2023-02-18T15:09:00;101935.91;;;10.99;100.00
76070;BME280;64768;51.738;5.852;2023-02-18T15:11:41;101940.97;;;10.97;100.00
76070;BME280;64768;51.738;5.852;2023-02-18T15:14:16;101946.88;;;11.06;100.00
76070;BME280;64768;51.738;5.852;2023-02-18T15:17:00;101935.91;;;10.99;100.00
76070;BME280;64768;51.738;5.852;2023-02-18T15:19:39;101953.91;;;11.07;100.00
76070;BME280;64768;51.738;5.852;2023-02-18T15:22:18;101933.16;;;10.92;100.00
76070;BME280;64768;51.738;5.852;2023-02-18T15:24:51;101956.19;;;11.05;100.00
76070;BME280;64768;51.738;5.852;2023-02-18T15:27:23;101953.47;;;11.05;100.00
76070;BME280;64768;51.738;5.852;2023-02-18T15:29:57;101942.91;;;10.97;100.00
76070;BME280;64768;51.738;5.852;2023-02-18T15:32:32;101945.28;;;11.05;100.00
76070;BME280;64768;51.738;5.852;2023-02-18T15:40:30;101949.16;;;11.01;100.00
76070;BME280;64768;51.738;5.852;2023-02-18T15:48:23;101935.78;;;10.85;100.00
76070;BME280;64768;51.738;5.852;2023-02-18T15:50:57;101926.81;;;10.81;100.00
76070;BME280;64768;51.738;5.852;2023-02-18T15:53:44;101949.09;;;10.90;100.00
76070;BME280;64768;51.738;5.852;2023-02-18T15:56:40;101953.31;;;10.88;100.00
76070;BME280;64768;51.738;5.852;2023-02-18T15:59:17;101952.16;;;10.85;100.00
76070;BME280;64768;51.738;5.852;2023-02-18T16:12:37;101952.06;;;10.74;100.00
76070;BME280;64768;51.738;5.852;2023-02-18T16:15:24;101948.38;;;10.56;100.00
76070;BME280;64768;51.738;5.852;2023-02-18T16:18:01;101940.97;;;10.57;100.00
76070;BME280;64768;51.738;5.852;2023-02-18T16:20:40;101944.44;;;10.53;100.00
76070;BME280;64768;51.738;5.852;2023-02-18T16:23:12;101943.69;;;10.57;100.00
76070;BME280;64768;51.738;5.852;2023-02-18T16:25:50;101949.53;;;10.55;100.00
76070;BME280;64768;51.738;5.852;2023-02-18T16:28:33;101955.38;;;10.57;100.00